sensor_id;sensor_type;location;lat;lon;timestamp;temperature;humidity
24772;DHT22;12870;52.274;9.754;2023-02-03T00:00:10;7.70;99.90
24772;DHT22;12870;52.274;9.754;2023-02-03T00:02:36;7.90;99.90
24772;DHT22;12870;52.274;9.754;2023-02-03T00:05:02;8.00;99.90
24772;DHT22;12870;52.274;9.754;2023-02-03T00:07:27;8.00;99.90
24772;DHT22;12870;52.274;9.754;2023-02-03T00:09:55;8.10;99.90
24772;DHT22;12870;52.274;9.754;2023-02-03T00:12:21;8.20;99.90
24772;DHT22;12870;52.274;9.754;2023-02-03T00:14:47;8.30;99.90
24772;DHT22;12870;52.274;9.754;2023-02-03T00:17:12;8.30;99.90
24772;DHT22;12870;52.274;9.754;2023-02-03T00:19:39;8.30;99.90
24772;DHT22;12870;52.274;9.754;2023-02-03T00:22:05;8.30;99.90
24772;DHT22;12870;52.274;9.754;2023-02-03T00:24:31;8.30;99.90
24772;DHT22;12870;52.274;9.754;2023-02-03T00:26:57;8.30;99.90
24772;DHT22;12870;52.274;9.754;2023-02-03T00:29:22;8.40;99.90
24772;DHT22;12870;52.274;9.754;2023-02-03T00:31:51;8.50;99.90
24772;DHT22;12870;52.274;9.754;2023-02-03T00:34:18;8.50;99.90
24772;DHT22;12870;52.274;9.754;2023-02-03T00:36:43;8.50;99.90
24772;DHT22;12870;52.274;9.754;2023-02-03T00:39:13;8.60;99.90
24772;DHT22;12870;52.274;9.754;2023-02-03T00:41:39;8.60;99.90
24772;DHT22;12870;52.274;9.754;2023-02-03T00:44:05;8.60;99.90
24772;DHT22;12870;52.274;9.754;2023-02-03T00:46:31;8.60;99.90
24772;DHT22;12870;52.274;9.754;2023-02-03T00:48:57;8.60;99.90
24772;DHT22;12870;52.274;9.754;2023-02-03T00:51:22;8.60;99.90
24772;DHT22;12870;52.274;9.754;2023-02-03T00:53:48;8.70;99.90
24772;DHT22;12870;52.274;9.754;2023-02-03T00:56:14;8.70;99.90
24772;DHT22;12870;52.274;9.754;2023-02-03T00:58:40;8.70;99.90
24772;DHT22;12870;52.274;9.754;2023-02-03T01:01:06;8.70;99.90
24772;DHT22;12870;52.274;9.754;2023-02-03T01:03:32;8.80;99.90
24772;DHT22;12870;52.274;9.754;2023-02-03T01:06:11;8.80;99.90
24772;DHT22;12870;52.274;9.754;2023-02-03T01:08:37;8.80;99.90
24772;DHT22;12870;52.274;9.754;2023-02-03T01:11:08;8.80;99.90
24772;DHT22;12870;52.274;9.754;2023-02-03T01:13:34;8.80;99.90
24772;DHT22;12870;52.274;9.754;2023-02-03T01:16:00;8.80;99.90
24772;DHT22;12870;52.274;9.754;2023-02-03T01:18:25;8.80;99.90
24772;DHT22;12870;52.274;9.754;2023-02-03T01:20:51;8.80;99.90
24772;DHT22;12870;52.274;9.754;2023-02-03T01:23:17;8.80;99.90
24772;DHT22;12870;52.274;9.754;2023-02-03T01:25:42;8.80;99.90
24772;DHT22;12870;52.274;9.754;2023-02-03T01:28:08;8.80;99.90
24772;DHT22;12870;52.274;9.754;2023-02-03T01:30:34;8.80;99.90
24772;DHT22;12870;52.274;9.754;2023-02-03T01:33:00;8.90;99.90
24772;DHT22;12870;52.274;9.754;2023-02-03T01:35:25;8.90;99.90
24772;DHT22;12870;52.274;9.754;2023-02-03T01:37:51;8.90;99.90
24772;DHT22;12870;52.274;9.754;2023-02-03T01:40:17;8.90;99.90
24772;DHT22;12870;52.274;9.754;2023-02-03T01:42:43;8.90;99.90
24772;DHT22;12870;52.274;9.754;2023-02-03T01:45:10;8.90;99.90
24772;DHT22;12870;52.274;9.754;2023-02-03T01:47:42;8.80;99.90
24772;DHT22;12870;52.274;9.754;2023-02-03T01:50:24;8.90;99.90
24772;DHT22;12870;52.274;9.754;2023-02-03T01:52:58;8.90;99.90
24772;DHT22;12870;52.274;9.754;2023-02-03T01:55:29;8.90;99.90
24772;DHT22;12870;52.274;9.754;2023-02-03T01:58:06;8.90;99.90
24772;DHT22;12870;52.274;9.754;2023-02-03T02:00:33;8.90;99.90
24772;DHT22;12870;52.274;9.754;2023-02-03T02:03:00;9.00;99.90
24772;DHT22;12870;52.274;9.754;2023-02-03T02:05:46;9.00;99.90
24772;DHT22;12870;52.274;9.754;2023-02-03T02:08:14;8.90;99.90
24772;DHT22;12870;52.274;9.754;2023-02-03T02:10:40;9.00;99.90
24772;DHT22;12870;52.274;9.754;2023-02-03T02:13:06;8.90;99.90
24772;DHT22;12870;52.274;9.754;2023-02-03T02:16:05;8.90;99.90
24772;DHT22;12870;52.274;9.754;2023-02-03T02:18:45;8.90;99.90
24772;DHT22;12870;52.274;9.754;2023-02-03T02:41:14;9.10;99.90
24772;DHT22;12870;52.274;9.754;2023-02-03T02:46:19;9.00;99.90
24772;DHT22;12870;52.274;9.754;2023-02-03T02:48:58;9.10;99.90
24772;DHT22;12870;52.274;9.754;2023-02-03T02:51:28;9.10;99.90
24772;DHT22;12870;52.274;9.754;2023-02-03T02:54:04;9.10;99.90
24772;DHT22;12870;52.274;9.754;2023-02-03T02:56:33;9.10;99.90
24772;DHT22;12870;52.274;9.754;2023-02-03T02:59:02;9.10;99.90
24772;DHT22;12870;52.274;9.754;2023-02-03T03:01:32;9.10;99.90
24772;DHT22;12870;52.274;9.754;2023-02-03T03:04:01;9.10;99.90
24772;DHT22;12870;52.274;9.754;2023-02-03T03:06:36;9.10;99.90
24772;DHT22;12870;52.274;9.754;2023-02-03T03:09:15;9.10;99.90
24772;DHT22;12870;52.274;9.754;2023-02-03T03:11:52;9.10;99.90
24772;DHT22;12870;52.274;9.754;2023-02-03T03:14:22;9.10;99.90
24772;DHT22;12870;52.274;9.754;2023-02-03T03:16:56;9.10;99.90
24772;DHT22;12870;52.274;9.754;2023-02-03T03:19:30;9.10;99.90
24772;DHT22;12870;52.274;9.754;2023-02-03T03:22:00;9.00;99.90
24772;DHT22;12870;52.274;9.754;2023-02-03T03:24:30;9.10;99.90
24772;DHT22;12870;52.274;9.754;2023-02-03T03:27:36;9.10;99.90
24772;DHT22;12870;52.274;9.754;2023-02-03T03:30:20;9.10;99.90
24772;DHT22;12870;52.274;9.754;2023-02-03T03:32:48;9.10;99.90
24772;DHT22;12870;52.274;9.754;2023-02-03T03:35:14;9.10;99.90
24772;DHT22;12870;52.274;9.754;2023-02-03T03:38:08;9.10;99.90
24772;DHT22;12870;52.274;9.754;2023-02-03T03:40:40;9.10;99.90
24772;DHT22;12870;52.274;9.754;2023-02-03T03:43:19;9.10;99.90
24772;DHT22;12870;52.274;9.754;2023-02-03T03:45:56;9.10;99.90
24772;DHT22;12870;52.274;9.754;2023-02-03T03:48:40;9.10;99.90
24772;DHT22;12870;52.274;9.754;2023-02-03T03:51:12;9.20;99.90
24772;DHT22;12870;52.274;9.754;2023-02-03T03:53:41;9.20;99.90
24772;DHT22;12870;52.274;9.754;2023-02-03T03:56:11;9.10;99.90
24772;DHT22;12870;52.274;9.754;2023-02-03T03:58:41;9.20;99.90
24772;DHT22;12870;52.274;9.754;2023-02-03T04:01:11;9.20;99.90
24772;DHT22;12870;52.274;9.754;2023-02-03T04:03:47;9.20;99.90
24772;DHT22;12870;52.274;9.754;2023-02-03T04:06:13;9.20;99.90
24772;DHT22;12870;52.274;9.754;2023-02-03T04:08:39;9.20;99.90
24772;DHT22;12870;52.274;9.754;2023-02-03T04:11:05;9.20;99.90
24772;DHT22;12870;52.274;9.754;2023-02-03T04:13:31;9.20;99.90
24772;DHT22;12870;52.274;9.754;2023-02-03T04:15:57;9.20;99.90
24772;DHT22;12870;52.274;9.754;2023-02-03T04:18:23;9.10;99.90
24772;DHT22;12870;52.274;9.754;2023-02-03T04:20:49;9.10;99.90
24772;DHT22;12870;52.274;9.754;2023-02-03T04:23:14;9.10;99.90
24772;DHT22;12870;52.274;9.754;2023-02-03T04:25:40;9.10;99.90
24772;DHT22;12870;52.274;9.754;2023-02-03T04:28:06;9.10;99.90
24772;DHT22;12870;52.274;9.754;2023-02-03T04:30:31;9.10;99.90
24772;DHT22;12870;52.274;9.754;2023-02-03T04:32:57;9.10;99.90
24772;DHT22;12870;52.274;9.754;2023-02-03T04:35:23;9.10;99.90
24772;DHT22;12870;52.274;9.754;2023-02-03T04:37:48;9.10;99.90
24772;DHT22;12870;52.274;9.754;2023-02-03T04:40:14;9.10;99.90
24772;DHT22;12870;52.274;9.754;2023-02-03T04:42:40;9.10;99.90
24772;DHT22;12870;52.274;9.754;2023-02-03T04:45:07;9.10;99.90
24772;DHT22;12870;52.274;9.754;2023-02-03T04:47:34;9.10;99.90
24772;DHT22;12870;52.274;9.754;2023-02-03T04:50:00;9.10;99.90
24772;DHT22;12870;52.274;9.754;2023-02-03T04:52:26;9.10;99.90
24772;DHT22;12870;52.274;9.754;2023-02-03T04:54:52;9.10;99.90
24772;DHT22;12870;52.274;9.754;2023-02-03T04:57:18;9.10;99.90
24772;DHT22;12870;52.274;9.754;2023-02-03T04:59:43;9.00;99.90
24772;DHT22;12870;52.274;9.754;2023-02-03T05:02:09;9.10;99.90
24772;DHT22;12870;52.274;9.754;2023-02-03T05:04:35;9.10;99.90
24772;DHT22;12870;52.274;9.754;2023-02-03T05:07:01;9.10;99.90
24772;DHT22;12870;52.274;9.754;2023-02-03T05:09:27;9.10;99.90
24772;DHT22;12870;52.274;9.754;2023-02-03T05:11:53;9.10;99.90
24772;DHT22;12870;52.274;9.754;2023-02-03T05:14:19;9.00;99.90
24772;DHT22;12870;52.274;9.754;2023-02-03T05:16:44;9.10;99.90
24772;DHT22;12870;52.274;9.754;2023-02-03T05:19:10;9.10;99.90
24772;DHT22;12870;52.274;9.754;2023-02-03T05:21:36;9.10;99.90
24772;DHT22;12870;52.274;9.754;2023-02-03T05:24:02;9.10;99.90
24772;DHT22;12870;52.274;9.754;2023-02-03T05:26:31;9.10;99.90
24772;DHT22;12870;52.274;9.754;2023-02-03T05:28:57;9.10;99.90
24772;DHT22;12870;52.274;9.754;2023-02-03T05:31:23;9.10;99.90
24772;DHT22;12870;52.274;9.754;2023-02-03T05:33:48;9.10;99.90
24772;DHT22;12870;52.274;9.754;2023-02-03T05:36:14;9.10;99.90
24772;DHT22;12870;52.274;9.754;2023-02-03T05:38:40;9.10;99.90
24772;DHT22;12870;52.274;9.754;2023-02-03T05:41:08;9.10;99.90
24772;DHT22;12870;52.274;9.754;2023-02-03T05:43:54;9.10;99.90
24772;DHT22;12870;52.274;9.754;2023-02-03T05:46:19;9.00;99.90
24772;DHT22;12870;52.274;9.754;2023-02-03T05:48:45;9.00;99.90
24772;DHT22;12870;52.274;9.754;2023-02-03T05:51:10;9.10;99.90
24772;DHT22;12870;52.274;9.754;2023-02-03T05:53:36;9.00;99.90
24772;DHT22;12870;52.274;9.754;2023-02-03T05:56:02;8.90;99.90
24772;DHT22;12870;52.274;9.754;2023-02-03T05:58:27;8.80;99.90
24772;DHT22;12870;52.274;9.754;2023-02-03T06:00:53;8.70;99.90
24772;DHT22;12870;52.274;9.754;2023-02-03T06:03:19;8.70;99.90
24772;DHT22;12870;52.274;9.754;2023-02-03T06:05:44;8.70;99.90
24772;DHT22;12870;52.274;9.754;2023-02-03T06:08:10;8.70;99.90
24772;DHT22;12870;52.274;9.754;2023-02-03T06:10:36;8.70;99.90
24772;DHT22;12870;52.274;9.754;2023-02-03T06:13:09;8.80;99.90
24772;DHT22;12870;52.274;9.754;2023-02-03T06:15:35;8.80;99.90
24772;DHT22;12870;52.274;9.754;2023-02-03T06:18:01;8.80;99.90
24772;DHT22;12870;52.274;9.754;2023-02-03T06:20:27;8.80;99.90
24772;DHT22;12870;52.274;9.754;2023-02-03T06:22:52;8.70;99.90
24772;DHT22;12870;52.274;9.754;2023-02-03T06:25:18;8.70;99.90
24772;DHT22;12870;52.274;9.754;2023-02-03T06:27:43;8.60;99.90
24772;DHT22;12870;52.274;9.754;2023-02-03T06:30:10;8.60;99.90
24772;DHT22;12870;52.274;9.754;2023-02-03T06:32:36;8.60;99.90
24772;DHT22;12870;52.274;9.754;2023-02-03T06:35:01;8.60;99.90
24772;DHT22;12870;52.274;9.754;2023-02-03T06:37:27;8.60;99.90
24772;DHT22;12870;52.274;9.754;2023-02-03T06:39:53;8.50;99.90
24772;DHT22;12870;52.274;9.754;2023-02-03T06:42:18;8.50;99.90
24772;DHT22;12870;52.274;9.754;2023-02-03T06:44:44;8.50;99.90
24772;DHT22;12870;52.274;9.754;2023-02-03T06:47:10;8.50;99.90
24772;DHT22;12870;52.274;9.754;2023-02-03T06:49:35;8.50;99.90
24772;DHT22;12870;52.274;9.754;2023-02-03T06:52:01;8.50;99.90
24772;DHT22;12870;52.274;9.754;2023-02-03T06:54:26;8.50;99.90
24772;DHT22;12870;52.274;9.754;2023-02-03T06:56:52;8.50;99.90
24772;DHT22;12870;52.274;9.754;2023-02-03T06:59:18;8.50;99.90
24772;DHT22;12870;52.274;9.754;2023-02-03T07:01:43;8.50;99.90
24772;DHT22;12870;52.274;9.754;2023-02-03T07:04:09;8.50;99.90
24772;DHT22;12870;52.274;9.754;2023-02-03T07:06:35;8.50;99.90
24772;DHT22;12870;52.274;9.754;2023-02-03T07:09:02;8.40;99.90
24772;DHT22;12870;52.274;9.754;2023-02-03T07:11:28;8.40;99.90
24772;DHT22;12870;52.274;9.754;2023-02-03T07:13:54;8.40;99.90
24772;DHT22;12870;52.274;9.754;2023-02-03T07:16:20;8.40;99.90
24772;DHT22;12870;52.274;9.754;2023-02-03T07:18:45;8.30;99.90
24772;DHT22;12870;52.274;9.754;2023-02-03T07:21:12;8.40;99.90
24772;DHT22;12870;52.274;9.754;2023-02-03T07:23:38;8.40;99.90
24772;DHT22;12870;52.274;9.754;2023-02-03T07:26:05;8.40;99.90
24772;DHT22;12870;52.274;9.754;2023-02-03T07:28:32;8.40;99.90
24772;DHT22;12870;52.274;9.754;2023-02-03T07:30:58;8.30;99.90
24772;DHT22;12870;52.274;9.754;2023-02-03T07:33:26;8.40;99.90
24772;DHT22;12870;52.274;9.754;2023-02-03T07:35:58;8.40;99.90
24772;DHT22;12870;52.274;9.754;2023-02-03T07:38:25;8.40;99.90
24772;DHT22;12870;52.274;9.754;2023-02-03T07:40:51;8.50;99.90
24772;DHT22;12870;52.274;9.754;2023-02-03T07:43:18;8.50;99.90
24772;DHT22;12870;52.274;9.754;2023-02-03T07:45:44;8.50;99.90
24772;DHT22;12870;52.274;9.754;2023-02-03T07:48:10;8.50;99.90
24772;DHT22;12870;52.274;9.754;2023-02-03T07:50:36;8.50;99.90
24772;DHT22;12870;52.274;9.754;2023-02-03T07:53:02;8.50;99.90
24772;DHT22;12870;52.274;9.754;2023-02-03T07:55:28;8.50;99.90
24772;DHT22;12870;52.274;9.754;2023-02-03T07:57:55;8.60;99.90
24772;DHT22;12870;52.274;9.754;2023-02-03T08:00:22;8.60;99.90
24772;DHT22;12870;52.274;9.754;2023-02-03T08:02:48;8.60;99.90
24772;DHT22;12870;52.274;9.754;2023-02-03T08:05:14;8.60;99.90
24772;DHT22;12870;52.274;9.754;2023-02-03T08:07:41;8.60;99.90
24772;DHT22;12870;52.274;9.754;2023-02-03T08:10:07;8.70;99.90
24772;DHT22;12870;52.274;9.754;2023-02-03T08:12:34;8.70;99.90
24772;DHT22;12870;52.274;9.754;2023-02-03T08:15:00;8.70;99.90
24772;DHT22;12870;52.274;9.754;2023-02-03T08:17:25;8.70;99.90
24772;DHT22;12870;52.274;9.754;2023-02-03T08:19:51;8.70;99.90
24772;DHT22;12870;52.274;9.754;2023-02-03T08:22:17;8.80;99.90
24772;DHT22;12870;52.274;9.754;2023-02-03T08:24:45;8.80;99.90
24772;DHT22;12870;52.274;9.754;2023-02-03T08:27:19;8.90;99.90
24772;DHT22;12870;52.274;9.754;2023-02-03T08:29:46;8.90;99.90
24772;DHT22;12870;52.274;9.754;2023-02-03T08:32:14;8.90;99.90
24772;DHT22;12870;52.274;9.754;2023-02-03T08:34:40;8.90;99.90
24772;DHT22;12870;52.274;9.754;2023-02-03T08:37:06;9.00;99.90
24772;DHT22;12870;52.274;9.754;2023-02-03T08:39:33;9.00;99.90
24772;DHT22;12870;52.274;9.754;2023-02-03T08:41:59;9.00;99.90
24772;DHT22;12870;52.274;9.754;2023-02-03T08:44:25;9.00;99.90
24772;DHT22;12870;52.274;9.754;2023-02-03T08:46:52;9.00;99.90
24772;DHT22;12870;52.274;9.754;2023-02-03T08:49:19;9.10;99.90
24772;DHT22;12870;52.274;9.754;2023-02-03T08:51:46;9.10;99.90
24772;DHT22;12870;52.274;9.754;2023-02-03T08:54:12;9.10;99.90
24772;DHT22;12870;52.274;9.754;2023-02-03T08:56:38;9.10;99.90
24772;DHT22;12870;52.274;9.754;2023-02-03T08:59:04;9.10;99.90
24772;DHT22;12870;52.274;9.754;2023-02-03T09:01:30;9.10;99.90
24772;DHT22;12870;52.274;9.754;2023-02-03T09:03:55;9.00;99.90
24772;DHT22;12870;52.274;9.754;2023-02-03T09:06:21;8.90;99.90
24772;DHT22;12870;52.274;9.754;2023-02-03T09:08:47;8.80;99.90
24772;DHT22;12870;52.274;9.754;2023-02-03T09:11:15;8.80;99.90
24772;DHT22;12870;52.274;9.754;2023-02-03T09:13:42;8.80;99.90
24772;DHT22;12870;52.274;9.754;2023-02-03T09:16:12;9.00;99.90
24772;DHT22;12870;52.274;9.754;2023-02-03T09:18:38;9.00;99.90
24772;DHT22;12870;52.274;9.754;2023-02-03T09:21:06;9.10;99.90
24772;DHT22;12870;52.274;9.754;2023-02-03T09:23:32;9.10;99.90
24772;DHT22;12870;52.274;9.754;2023-02-03T09:26:05;9.20;99.90
24772;DHT22;12870;52.274;9.754;2023-02-03T09:28:31;9.20;99.90
24772;DHT22;12870;52.274;9.754;2023-02-03T09:31:06;9.30;99.90
24772;DHT22;12870;52.274;9.754;2023-02-03T09:33:33;9.30;99.90
24772;DHT22;12870;52.274;9.754;2023-02-03T09:35:59;9.20;99.90
24772;DHT22;12870;52.274;9.754;2023-02-03T09:38:25;9.20;99.90
24772;DHT22;12870;52.274;9.754;2023-02-03T09:40:54;9.20;99.90
24772;DHT22;12870;52.274;9.754;2023-02-03T09:43:53;9.20;99.90
24772;DHT22;12870;52.274;9.754;2023-02-03T09:46:31;9.10;99.90
24772;DHT22;12870;52.274;9.754;2023-02-03T09:51:56;9.00;99.90
24772;DHT22;12870;52.274;9.754;2023-02-03T09:54:30;9.00;99.90
24772;DHT22;12870;52.274;9.754;2023-02-03T09:57:01;8.90;99.90
24772;DHT22;12870;52.274;9.754;2023-02-03T09:59:32;8.80;99.90
24772;DHT22;12870;52.274;9.754;2023-02-03T10:05:13;8.80;99.90
24772;DHT22;12870;52.274;9.754;2023-02-03T10:08:06;8.70;99.90
24772;DHT22;12870;52.274;9.754;2023-02-03T10:10:59;8.70;99.90
24772;DHT22;12870;52.274;9.754;2023-02-03T10:16:38;8.70;99.90
24772;DHT22;12870;52.274;9.754;2023-02-03T10:19:17;8.80;99.90
24772;DHT22;12870;52.274;9.754;2023-02-03T10:22:05;8.80;99.90
24772;DHT22;12870;52.274;9.754;2023-02-03T10:27:21;8.90;99.90
24772;DHT22;12870;52.274;9.754;2023-02-03T10:29:53;8.90;99.90
24772;DHT22;12870;52.274;9.754;2023-02-03T10:32:23;9.00;99.90
24772;DHT22;12870;52.274;9.754;2023-02-03T10:34:50;9.00;99.90
24772;DHT22;12870;52.274;9.754;2023-02-03T10:37:32;9.00;99.90
24772;DHT22;12870;52.274;9.754;2023-02-03T10:39:59;8.90;99.90
24772;DHT22;12870;52.274;9.754;2023-02-03T10:42:28;8.90;99.90
24772;DHT22;12870;52.274;9.754;2023-02-03T10:45:14;8.90;99.90
24772;DHT22;12870;52.274;9.754;2023-02-03T10:47:46;8.90;99.90
24772;DHT22;12870;52.274;9.754;2023-02-03T10:52:41;8.90;99.90
24772;DHT22;12870;52.274;9.754;2023-02-03T10:55:27;8.80;99.90
24772;DHT22;12870;52.274;9.754;2023-02-03T10:57:55;8.80;99.90
24772;DHT22;12870;52.274;9.754;2023-02-03T11:00:28;8.80;99.90
24772;DHT22;12870;52.274;9.754;2023-02-03T11:03:21;8.80;99.90
24772;DHT22;12870;52.274;9.754;2023-02-03T11:06:10;8.80;99.90
24772;DHT22;12870;52.274;9.754;2023-02-03T11:08:39;8.80;99.90
24772;DHT22;12870;52.274;9.754;2023-02-03T11:11:08;8.80;99.90
24772;DHT22;12870;52.274;9.754;2023-02-03T11:13:34;8.80;99.90
24772;DHT22;12870;52.274;9.754;2023-02-03T11:16:14;8.80;99.90
24772;DHT22;12870;52.274;9.754;2023-02-03T11:21:21;8.90;99.90
24772;DHT22;12870;52.274;9.754;2023-02-03T11:26:59;8.90;99.90
24772;DHT22;12870;52.274;9.754;2023-02-03T11:29:40;9.00;99.90
24772;DHT22;12870;52.274;9.754;2023-02-03T11:32:19;9.00;99.90
24772;DHT22;12870;52.274;9.754;2023-02-03T11:37:41;9.00;99.90
24772;DHT22;12870;52.274;9.754;2023-02-03T11:42:34;9.00;99.90
24772;DHT22;12870;52.274;9.754;2023-02-03T11:45:33;9.00;99.90
24772;DHT22;12870;52.274;9.754;2023-02-03T11:56:55;9.20;99.90
24772;DHT22;12870;52.274;9.754;2023-02-03T12:15:55;9.30;99.90
24772;DHT22;12870;52.274;9.754;2023-02-03T12:21:55;9.40;99.90
24772;DHT22;12870;52.274;9.754;2023-02-03T12:27:05;9.50;99.90
24772;DHT22;12870;52.274;9.754;2023-02-03T12:29:38;9.40;99.90
24772;DHT22;12870;52.274;9.754;2023-02-03T12:32:45;9.50;99.90
24772;DHT22;12870;52.274;9.754;2023-02-03T12:40:35;9.80;99.90
24772;DHT22;12870;52.274;9.754;2023-02-03T12:45:59;9.70;99.90
24772;DHT22;12870;52.274;9.754;2023-02-03T12:51:36;9.50;99.90
24772;DHT22;12870;52.274;9.754;2023-02-03T12:56:41;9.60;99.90
24772;DHT22;12870;52.274;9.754;2023-02-03T12:59:23;9.60;99.90
24772;DHT22;12870;52.274;9.754;2023-02-03T13:01:58;9.70;99.90
24772;DHT22;12870;52.274;9.754;2023-02-03T13:04:42;9.80;99.90
24772;DHT22;12870;52.274;9.754;2023-02-03T13:07:42;9.80;99.90
24772;DHT22;12870;52.274;9.754;2023-02-03T13:10:32;9.90;99.90
24772;DHT22;12870;52.274;9.754;2023-02-03T13:12:59;10.00;99.90
24772;DHT22;12870;52.274;9.754;2023-02-03T13:15:31;10.10;99.90
24772;DHT22;12870;52.274;9.754;2023-02-03T13:18:23;10.10;99.90
24772;DHT22;12870;52.274;9.754;2023-02-03T13:20:51;10.10;99.90
24772;DHT22;12870;52.274;9.754;2023-02-03T13:23:21;10.10;99.90
24772;DHT22;12870;52.274;9.754;2023-02-03T13:31:23;9.90;99.90
24772;DHT22;12870;52.274;9.754;2023-02-03T13:44:46;9.80;99.90
24772;DHT22;12870;52.274;9.754;2023-02-03T13:47:18;9.80;99.90
24772;DHT22;12870;52.274;9.754;2023-02-03T13:49:52;9.80;99.90
24772;DHT22;12870;52.274;9.754;2023-02-03T13:52:31;9.90;99.90
24772;DHT22;12870;52.274;9.754;2023-02-03T13:54:59;9.90;99.90
24772;DHT22;12870;52.274;9.754;2023-02-03T13:57:35;9.90;99.90
24772;DHT22;12870;52.274;9.754;2023-02-03T14:05:57;9.70;99.90
24772;DHT22;12870;52.274;9.754;2023-02-03T14:16:45;9.60;99.90
24772;DHT22;12870;52.274;9.754;2023-02-03T14:21:58;9.50;99.90
24772;DHT22;12870;52.274;9.754;2023-02-03T14:24:35;9.50;99.90
24772;DHT22;12870;52.274;9.754;2023-02-03T14:27:04;9.50;99.90
24772;DHT22;12870;52.274;9.754;2023-02-03T14:29:33;9.50;99.90
24772;DHT22;12870;52.274;9.754;2023-02-03T14:32:05;9.50;99.90
24772;DHT22;12870;52.274;9.754;2023-02-03T14:58:35;9.20;99.90
24772;DHT22;12870;52.274;9.754;2023-02-03T15:01:03;9.10;99.90
24772;DHT22;12870;52.274;9.754;2023-02-03T15:03:29;9.10;99.90
24772;DHT22;12870;52.274;9.754;2023-02-03T15:05:58;9.10;99.90
24772;DHT22;12870;52.274;9.754;2023-02-03T15:13:52;9.10;99.90
24772;DHT22;12870;52.274;9.754;2023-02-03T15:16:20;9.00;99.90
24772;DHT22;12870;52.274;9.754;2023-02-03T15:18:57;9.00;99.90
24772;DHT22;12870;52.274;9.754;2023-02-03T15:21:23;9.00;99.90
24772;DHT22;12870;52.274;9.754;2023-02-03T15:23:49;9.00;99.90
24772;DHT22;12870;52.274;9.754;2023-02-03T15:26:24;8.90;99.90
24772;DHT22;12870;52.274;9.754;2023-02-03T15:29:01;8.80;99.90
24772;DHT22;12870;52.274;9.754;2023-02-03T15:31:39;8.80;99.90
24772;DHT22;12870;52.274;9.754;2023-02-03T15:36:48;8.70;99.90
24772;DHT22;12870;52.274;9.754;2023-02-03T15:41:50;8.60;99.90
24772;DHT22;12870;52.274;9.754;2023-02-03T15:44:52;8.60;99.90
24772;DHT22;12870;52.274;9.754;2023-02-03T15:50:07;8.50;99.90
24772;DHT22;12870;52.274;9.754;2023-02-03T15:52:38;8.40;99.90
24772;DHT22;12870;52.274;9.754;2023-02-03T15:55:14;8.40;99.90
24772;DHT22;12870;52.274;9.754;2023-02-03T15:57:43;8.30;99.90
24772;DHT22;12870;52.274;9.754;2023-02-03T16:00:28;8.30;99.90
24772;DHT22;12870;52.274;9.754;2023-02-03T16:02:56;8.30;99.90
24772;DHT22;12870;52.274;9.754;2023-02-03T16:05:33;8.20;99.90
24772;DHT22;12870;52.274;9.754;2023-02-03T16:08:33;8.30;99.90
24772;DHT22;12870;52.274;9.754;2023-02-03T16:10:59;8.30;99.90
24772;DHT22;12870;52.274;9.754;2023-02-03T16:13:27;8.30;99.90
24772;DHT22;12870;52.274;9.754;2023-02-03T16:16:14;8.20;99.90
24772;DHT22;12870;52.274;9.754;2023-02-03T16:18:53;8.20;99.90
24772;DHT22;12870;52.274;9.754;2023-02-03T16:21:42;8.20;99.90
24772;DHT22;12870;52.274;9.754;2023-02-03T16:24:38;8.20;99.90
24772;DHT22;12870;52.274;9.754;2023-02-03T16:29:52;8.10;99.90
24772;DHT22;12870;52.274;9.754;2023-02-03T16:32:37;8.10;99.90
24772;DHT22;12870;52.274;9.754;2023-02-03T16:35:22;8.10;99.90
24772;DHT22;12870;52.274;9.754;2023-02-03T16:38:16;8.10;99.90
24772;DHT22;12870;52.274;9.754;2023-02-03T16:41:01;8.10;99.90
24772;DHT22;12870;52.274;9.754;2023-02-03T16:43:46;8.00;99.90
24772;DHT22;12870;52.274;9.754;2023-02-03T16:46:30;8.10;99.90
24772;DHT22;12870;52.274;9.754;2023-02-03T16:49:14;8.10;99.90
24772;DHT22;12870;52.274;9.754;2023-02-03T16:51:58;8.10;99.90
24772;DHT22;12870;52.274;9.754;2023-02-03T16:54:24;8.00;99.90
24772;DHT22;12870;52.274;9.754;2023-02-03T16:56:52;8.00;99.90
24772;DHT22;12870;52.274;9.754;2023-02-03T16:59:18;8.00;99.90
24772;DHT22;12870;52.274;9.754;2023-02-03T17:01:44;8.00;99.90
24772;DHT22;12870;52.274;9.754;2023-02-03T17:04:09;8.00;99.90
24772;DHT22;12870;52.274;9.754;2023-02-03T17:06:37;8.00;99.90
24772;DHT22;12870;52.274;9.754;2023-02-03T17:09:03;8.00;99.90
24772;DHT22;12870;52.274;9.754;2023-02-03T17:11:29;8.00;99.90
24772;DHT22;12870;52.274;9.754;2023-02-03T17:13:55;7.90;99.90
24772;DHT22;12870;52.274;9.754;2023-02-03T17:16:23;7.90;99.90
24772;DHT22;12870;52.274;9.754;2023-02-03T17:18:50;8.00;99.90
24772;DHT22;12870;52.274;9.754;2023-02-03T17:21:20;8.00;99.90
24772;DHT22;12870;52.274;9.754;2023-02-03T17:23:46;8.00;99.90
24772;DHT22;12870;52.274;9.754;2023-02-03T17:26:12;8.00;99.90
24772;DHT22;12870;52.274;9.754;2023-02-03T17:28:39;8.00;99.90
24772;DHT22;12870;52.274;9.754;2023-02-03T17:31:06;8.00;99.90
24772;DHT22;12870;52.274;9.754;2023-02-03T17:33:33;7.90;99.90
24772;DHT22;12870;52.274;9.754;2023-02-03T17:36:03;7.90;99.90
24772;DHT22;12870;52.274;9.754;2023-02-03T17:38:30;7.90;99.90
24772;DHT22;12870;52.274;9.754;2023-02-03T17:40:56;7.90;99.90
24772;DHT22;12870;52.274;9.754;2023-02-03T17:43:22;7.90;99.90
24772;DHT22;12870;52.274;9.754;2023-02-03T17:45:48;7.80;99.90
24772;DHT22;12870;52.274;9.754;2023-02-03T17:48:13;7.80;99.90
24772;DHT22;12870;52.274;9.754;2023-02-03T17:50:39;7.70;99.90
24772;DHT22;12870;52.274;9.754;2023-02-03T17:53:05;7.70;99.90
24772;DHT22;12870;52.274;9.754;2023-02-03T17:55:31;7.70;99.90
24772;DHT22;12870;52.274;9.754;2023-02-03T17:57:57;7.70;99.90
24772;DHT22;12870;52.274;9.754;2023-02-03T18:00:24;7.70;99.90
24772;DHT22;12870;52.274;9.754;2023-02-03T18:02:51;7.80;99.90
24772;DHT22;12870;52.274;9.754;2023-02-03T18:05:17;7.70;99.90
24772;DHT22;12870;52.274;9.754;2023-02-03T18:07:43;7.80;99.90
24772;DHT22;12870;52.274;9.754;2023-02-03T18:10:09;7.60;99.90
24772;DHT22;12870;52.274;9.754;2023-02-03T18:12:35;7.60;99.90
24772;DHT22;12870;52.274;9.754;2023-02-03T18:15:01;7.60;99.90
24772;DHT22;12870;52.274;9.754;2023-02-03T18:17:27;7.60;99.90
24772;DHT22;12870;52.274;9.754;2023-02-03T18:19:52;7.50;99.90
24772;DHT22;12870;52.274;9.754;2023-02-03T18:22:19;7.50;99.90
24772;DHT22;12870;52.274;9.754;2023-02-03T18:24:46;7.50;99.90
24772;DHT22;12870;52.274;9.754;2023-02-03T18:27:16;7.50;99.90
24772;DHT22;12870;52.274;9.754;2023-02-03T18:29:46;7.50;99.90
24772;DHT22;12870;52.274;9.754;2023-02-03T18:32:13;7.50;99.90
24772;DHT22;12870;52.274;9.754;2023-02-03T18:34:40;7.50;99.90
24772;DHT22;12870;52.274;9.754;2023-02-03T18:37:06;7.40;99.90
24772;DHT22;12870;52.274;9.754;2023-02-03T18:39:31;7.40;99.90
24772;DHT22;12870;52.274;9.754;2023-02-03T18:41:57;7.40;99.90
24772;DHT22;12870;52.274;9.754;2023-02-03T18:44:23;7.30;99.90
24772;DHT22;12870;52.274;9.754;2023-02-03T18:46:52;7.30;99.90
24772;DHT22;12870;52.274;9.754;2023-02-03T18:49:18;7.30;99.90